createdAt,value
2022-09-30T00:01:25.901Z,3.92
2022-09-30T00:03:54.313Z,4.55
2022-09-30T00:06:21.709Z,4.35
2022-09-30T00:08:49.028Z,4.20
2022-09-30T00:11:21.303Z,4.80
2022-09-30T00:13:51.009Z,4.35
2022-09-30T00:16:23.764Z,5.13
2022-09-30T00:21:19.119Z,5.15
2022-09-30T00:23:46.595Z,5.38
2022-09-30T00:26:16.631Z,5.65
2022-09-30T00:28:44.197Z,5.10
2022-09-30T00:31:16.808Z,5.70
2022-09-30T00:34:06.929Z,6.00
2022-09-30T00:36:35.118Z,5.95
2022-09-30T00:39:01.958Z,6.32
2022-09-30T00:41:28.807Z,5.93
2022-09-30T00:43:55.646Z,6.95
2022-09-30T00:46:31.399Z,7.65
2022-09-30T00:49:03.472Z,6.45
2022-09-30T00:51:38.129Z,6.55
2022-09-30T00:54:14.045Z,6.93
2022-09-30T00:56:45.848Z,6.15
2022-09-30T00:59:21.756Z,8.23
2022-09-30T01:01:49.403Z,6.88
2022-09-30T01:04:20.712Z,6.93
2022-09-30T01:06:48.603Z,7.78
2022-09-30T01:09:15.904Z,7.78
2022-09-30T01:11:42.811Z,8.30
2022-09-30T01:14:15.670Z,6.82
2022-09-30T01:16:52.952Z,8.40
2022-09-30T01:19:44.030Z,7.32
2022-09-30T01:22:45.214Z,8.85
2022-09-30T01:25:24.140Z,8.23
2022-09-30T01:28:25.416Z,8.75
2022-09-30T01:31:10.243Z,7.20
2022-09-30T01:33:58.244Z,8.00
2022-09-30T01:36:34.411Z,8.13
2022-09-30T01:42:35.969Z,7.50
2022-09-30T01:45:10.963Z,8.00
2022-09-30T01:48:11.026Z,8.95
2022-09-30T01:50:54.330Z,8.90
2022-09-30T01:53:35.938Z,9.05
2022-09-30T01:56:20.573Z,8.20
2022-09-30T01:59:00.880Z,9.32
2022-09-30T02:01:33.938Z,10.38
2022-09-30T02:04:07.304Z,9.75
2022-09-30T02:06:44.120Z,9.50
2022-09-30T02:10:03.764Z,9.50
2022-09-30T02:12:37.798Z,9.07
2022-09-30T02:15:14.327Z,9.68
2022-09-30T02:17:46.983Z,9.00
2022-09-30T02:20:22.573Z,9.02
2022-09-30T02:23:02.579Z,9.13
2022-09-30T02:25:36.679Z,8.75
2022-09-30T02:28:08.527Z,9.27
2022-09-30T02:30:38.186Z,8.90
2022-09-30T02:33:18.255Z,8.93
2022-09-30T02:35:52.634Z,10.25
2022-09-30T02:38:24.917Z,9.00
2022-09-30T02:41:21.063Z,10.23
2022-09-30T02:43:49.224Z,9.73
2022-09-30T02:46:30.946Z,10.07
2022-09-30T02:49:34.394Z,10.30
2022-09-30T02:55:04.777Z,10.50
2022-09-30T02:57:53.743Z,10.07
2022-09-30T03:00:20.857Z,10.95
2022-09-30T03:02:48.147Z,11.63
2022-09-30T03:05:17.523Z,12.45
2022-09-30T03:07:44.398Z,12.65
2022-09-30T03:10:16.178Z,13.15
2022-09-30T03:13:10.393Z,12.55
2022-09-30T03:16:14.030Z,11.25
2022-09-30T03:19:00.088Z,12.65
2022-09-30T03:21:52.635Z,11.93
2022-09-30T03:24:51.330Z,12.65
2022-09-30T03:27:25.571Z,12.35
2022-09-30T03:30:11.699Z,11.93
2022-09-30T03:32:56.984Z,14.40
2022-09-30T03:35:53.164Z,13.25
2022-09-30T03:38:39.807Z,12.55
2022-09-30T03:41:36.022Z,11.93
2022-09-30T03:44:23.392Z,11.70
2022-09-30T03:46:57.209Z,11.48
2022-09-30T03:49:28.274Z,12.75
2022-09-30T03:51:58.717Z,12.32
2022-09-30T03:54:26.171Z,11.52
2022-09-30T03:56:52.979Z,11.27
2022-09-30T03:59:28.530Z,12.02
2022-09-30T04:01:57.484Z,12.25
2022-09-30T04:04:24.535Z,12.63
2022-09-30T04:06:51.587Z,13.35
2022-09-30T04:09:18.497Z,13.50
2022-09-30T04:11:45.483Z,11.48
2022-09-30T04:14:12.355Z,13.43
2022-09-30T04:16:39.195Z,11.07
2022-09-30T04:19:06.207Z,12.20
2022-09-30T04:21:33.018Z,12.43
2022-09-30T04:23:59.861Z,11.50
2022-09-30T04:26:26.774Z,12.88
2022-09-30T04:28:53.669Z,11.88
2022-09-30T04:31:21.401Z,11.55
2022-09-30T04:33:48.303Z,12.02
2022-09-30T04:36:15.115Z,12.23
2022-09-30T04:38:41.966Z,11.88
2022-09-30T04:41:17.323Z,11.85
2022-09-30T04:43:46.932Z,11.18
2022-09-30T04:46:22.539Z,12.10
2022-09-30T04:48:49.981Z,12.02
2022-09-30T04:51:21.751Z,10.50
2022-09-30T04:53:49.104Z,13.55
2022-09-30T04:56:16.922Z,12.75
2022-09-30T04:58:44.125Z,11.02
2022-09-30T05:01:16.996Z,12.55
2022-09-30T05:03:45.477Z,12.48
2022-09-30T05:06:13.298Z,10.80
2022-09-30T05:08:45.738Z,10.43
2022-09-30T05:11:21.452Z,10.75
2022-09-30T05:13:50.238Z,11.35
2022-09-30T05:16:17.545Z,11.30
2022-09-30T05:18:46.260Z,11.90
2022-09-30T05:21:19.639Z,11.00
2022-09-30T05:23:47.272Z,11.35
2022-09-30T05:26:14.309Z,12.45
2022-09-30T05:28:42.260Z,9.90
2022-09-30T05:31:09.488Z,12.07
2022-09-30T05:33:36.403Z,10.88
2022-09-30T05:36:06.285Z,10.32
2022-09-30T05:38:34.113Z,10.85
2022-09-30T05:41:09.077Z,11.00
2022-09-30T05:43:38.540Z,10.55
2022-09-30T05:46:05.999Z,10.13
2022-09-30T05:48:33.221Z,11.80
2022-09-30T05:51:01.775Z,11.40
2022-09-30T05:53:30.333Z,12.38
2022-09-30T05:55:57.661Z,12.82
2022-09-30T05:58:25.840Z,11.32
2022-09-30T06:00:52.954Z,10.93
2022-09-30T06:03:20.108Z,10.95
2022-09-30T06:05:47.213Z,10.35
2022-09-30T06:08:15.617Z,9.65
2022-09-30T06:10:44.198Z,11.45
2022-09-30T06:13:11.384Z,11.57
2022-09-30T06:15:39.708Z,11.13
2022-09-30T06:18:08.117Z,11.02
2022-09-30T06:20:40.515Z,11.25
2022-09-30T06:23:07.565Z,13.20
2022-09-30T06:25:37.667Z,12.40
2022-09-30T06:28:10.657Z,10.57
2022-09-30T06:30:40.650Z,11.88
2022-09-30T06:33:17.159Z,12.10
2022-09-30T06:35:47.172Z,11.77
2022-09-30T06:38:15.879Z,12.77
2022-09-30T06:40:44.333Z,10.50
2022-09-30T06:43:12.649Z,12.07
2022-09-30T06:45:39.898Z,12.23
2022-09-30T06:51:00.344Z,10.73
2022-09-30T06:53:29.281Z,11.23
2022-09-30T06:55:59.405Z,12.18
2022-09-30T06:58:26.273Z,12.55
2022-09-30T07:01:04.323Z,11.88
2022-09-30T07:03:34.769Z,12.63
2022-09-30T07:06:04.172Z,11.27
2022-09-30T07:08:33.007Z,11.70
2022-09-30T07:11:01.086Z,12.88
2022-09-30T07:13:28.348Z,11.65
2022-09-30T07:15:56.675Z,13.40
2022-09-30T07:18:24.803Z,12.55
2022-09-30T07:20:53.240Z,13.07
2022-09-30T07:23:25.820Z,11.00
2022-09-30T07:26:00.435Z,12.93
2022-09-30T07:28:31.583Z,13.68
2022-09-30T07:31:20.294Z,11.90
2022-09-30T07:33:48.189Z,11.38
2022-09-30T07:36:18.613Z,12.25
2022-09-30T07:38:50.521Z,12.70
2022-09-30T07:41:27.352Z,12.17
2022-09-30T07:43:56.574Z,13.02
2022-09-30T07:46:32.752Z,13.00
2022-09-30T07:49:02.282Z,14.02
2022-09-30T07:51:38.706Z,14.10
2022-09-30T07:54:10.517Z,13.52
2022-09-30T07:57:05.506Z,13.77
2022-09-30T07:59:29.952Z,13.57
2022-09-30T08:01:57.167Z,12.82
2022-09-30T08:04:26.022Z,11.48
2022-09-30T08:06:55.532Z,13.82
2022-09-30T08:09:24.086Z,13.27
2022-09-30T08:11:51.229Z,11.35
2022-09-30T08:14:21.329Z,13.05
2022-09-30T08:16:48.941Z,11.60
2022-09-30T08:19:21.635Z,12.32
2022-09-30T08:21:49.297Z,12.32
2022-09-30T08:24:16.652Z,11.82
2022-09-30T08:26:43.850Z,10.93
2022-09-30T08:29:20.142Z,12.18
2022-09-30T08:31:52.499Z,11.57
2022-09-30T08:34:19.598Z,11.52
2022-09-30T08:36:46.662Z,10.07
2022-09-30T08:39:13.838Z,11.00
2022-09-30T08:41:53.368Z,9.75
2022-09-30T08:44:43.432Z,9.73
2022-09-30T08:47:31.396Z,11.95
2022-09-30T08:50:20.304Z,10.13
2022-09-30T08:52:53.890Z,10.60
2022-09-30T08:55:33.604Z,9.57
2022-09-30T08:58:04.277Z,10.32
2022-09-30T09:00:31.395Z,9.57
2022-09-30T09:03:00.763Z,10.38
2022-09-30T09:05:49.974Z,9.30
2022-09-30T09:08:25.102Z,8.63
2022-09-30T09:11:02.994Z,8.43
2022-09-30T09:13:48.236Z,9.15
2022-09-30T09:16:36.882Z,8.48
2022-09-30T09:19:12.670Z,8.35
2022-09-30T09:21:54.903Z,8.73
2022-09-30T09:24:27.820Z,8.93
2022-09-30T09:26:57.625Z,7.78
2022-09-30T09:30:02.113Z,7.53
2022-09-30T09:32:29.766Z,7.80
2022-09-30T09:35:06.531Z,7.35
2022-09-30T09:38:04.158Z,6.22
2022-09-30T09:40:39.980Z,6.40
2022-09-30T09:43:12.236Z,6.10
2022-09-30T09:45:47.891Z,5.97
2022-09-30T09:48:17.112Z,5.15
2022-09-30T09:50:51.987Z,5.82
2022-09-30T09:53:58.085Z,5.65
2022-09-30T09:56:36.490Z,5.10
2022-09-30T09:59:19.857Z,4.82
2022-09-30T10:01:52.895Z,5.38
2022-09-30T10:07:15.613Z,4.32
2022-09-30T10:09:44.289Z,4.20
2022-09-30T10:12:11.286Z,3.83
2022-09-30T10:15:12.848Z,3.90
2022-09-30T10:17:40.102Z,3.83
2022-09-30T10:20:16.418Z,3.78
2022-09-30T10:22:43.617Z,3.78
2022-09-30T10:25:22.997Z,3.83
2022-09-30T10:27:56.667Z,4.15
2022-09-30T10:30:46.767Z,3.63
2022-09-30T10:33:45.005Z,4.13
2022-09-30T10:36:17.204Z,3.70
2022-09-30T10:39:06.715Z,4.03
2022-09-30T10:41:37.964Z,3.53
2022-09-30T10:44:14.054Z,3.85
2022-09-30T10:46:44.900Z,3.10
2022-09-30T10:49:23.814Z,3.17
2022-09-30T10:51:50.969Z,3.35
2022-09-30T10:54:46.628Z,3.20
2022-09-30T10:57:38.246Z,3.03
2022-09-30T11:00:27.877Z,3.38
2022-09-30T11:02:55.156Z,2.40
2022-09-30T11:05:24.849Z,2.78
2022-09-30T11:08:06.904Z,2.97
2022-09-30T11:10:48.371Z,2.63
2022-09-30T11:13:30.168Z,2.40
2022-09-30T11:16:11.767Z,2.90
2022-09-30T11:18:49.082Z,2.60
2022-09-30T11:21:33.726Z,2.35
2022-09-30T11:24:25.899Z,2.10
2022-09-30T11:27:30.484Z,1.98
2022-09-30T11:30:15.835Z,1.88
2022-09-30T11:33:21.516Z,2.13
2022-09-30T11:36:06.398Z,2.25
2022-09-30T11:39:00.424Z,1.85
2022-09-30T11:41:46.119Z,1.75
2022-09-30T11:44:30.573Z,1.70
2022-09-30T11:47:16.140Z,1.60
2022-09-30T11:50:07.962Z,1.45
2022-09-30T11:52:59.919Z,1.70
2022-09-30T11:55:37.118Z,1.60
2022-09-30T11:58:36.057Z,1.95
2022-09-30T12:01:14.520Z,1.60
2022-09-30T12:03:53.171Z,2.60
2022-09-30T12:06:41.028Z,1.90
2022-09-30T12:09:31.073Z,1.80
2022-09-30T12:12:08.597Z,1.63
2022-09-30T12:14:43.332Z,2.30
2022-09-30T12:17:19.950Z,2.15
2022-09-30T12:19:53.204Z,2.47
2022-09-30T12:22:30.627Z,2.70
2022-09-30T12:24:57.722Z,3.20
2022-09-30T12:27:46.945Z,4.13
2022-09-30T12:30:20.806Z,4.40
2022-09-30T12:33:15.810Z,5.07
2022-09-30T12:36:05.266Z,4.38
2022-09-30T12:38:51.675Z,4.47
2022-09-30T12:41:57.722Z,4.35
2022-09-30T12:44:58.400Z,4.03
2022-09-30T12:47:51.327Z,5.50
2022-09-30T12:50:34.980Z,4.90
2022-09-30T12:53:23.981Z,4.25
2022-09-30T12:55:51.888Z,3.63
2022-09-30T12:58:31.072Z,4.30
2022-09-30T13:01:22.749Z,4.93
2022-09-30T13:04:09.072Z,4.05
2022-09-30T13:06:45.069Z,4.00
2022-09-30T13:09:11.973Z,4.10
2022-09-30T13:11:51.509Z,3.75
2022-09-30T13:14:45.856Z,3.92
2022-09-30T13:17:23.767Z,4.03
2022-09-30T13:19:53.154Z,3.63
2022-09-30T13:22:29.489Z,3.50
2022-09-30T13:24:59.330Z,3.10
2022-09-30T13:27:46.357Z,3.50
2022-09-30T13:30:16.376Z,4.18
2022-09-30T13:32:43.402Z,3.22
2022-09-30T13:35:37.686Z,3.65
2022-09-30T13:38:13.802Z,4.15
2022-09-30T13:41:03.094Z,4.38
2022-09-30T13:44:02.532Z,4.63
2022-09-30T13:46:53.795Z,4.50
2022-09-30T13:49:45.056Z,4.40
2022-09-30T13:52:31.928Z,4.72
2022-09-30T13:55:09.564Z,4.50
2022-09-30T13:58:04.943Z,4.68
2022-09-30T14:00:57.188Z,4.20
2022-09-30T14:03:51.655Z,4.47
2022-09-30T14:06:54.175Z,5.57
2022-09-30T14:09:23.939Z,4.85
2022-09-30T14:12:18.409Z,6.28
2022-09-30T14:15:02.317Z,6.93
2022-09-30T14:17:53.892Z,5.97
2022-09-30T14:20:52.125Z,6.53
2022-09-30T14:23:23.187Z,5.43
2022-09-30T14:25:58.489Z,5.75
2022-09-30T14:28:42.542Z,5.63
2022-09-30T14:31:15.008Z,5.22
2022-09-30T14:33:47.405Z,5.35
2022-09-30T14:36:18.973Z,5.03
2022-09-30T14:38:51.184Z,5.18
2022-09-30T14:41:23.889Z,6.80
2022-09-30T14:43:58.135Z,6.32
2022-09-30T14:46:33.824Z,6.63
2022-09-30T14:49:10.891Z,6.47
2022-09-30T14:51:43.867Z,6.65
2022-09-30T14:54:21.338Z,6.45
2022-09-30T14:56:49.606Z,6.95
2022-09-30T14:59:34.698Z,6.80
2022-09-30T15:02:05.250Z,6.13
2022-09-30T15:04:41.409Z,5.38
2022-09-30T15:07:12.323Z,5.85
2022-09-30T15:09:43.476Z,5.40
2022-09-30T15:12:15.166Z,5.47
2022-09-30T15:14:47.693Z,5.60
2022-09-30T15:17:29.454Z,5.55
2022-09-30T15:19:57.898Z,5.50
2022-09-30T15:22:29.247Z,5.68
2022-09-30T15:24:58.338Z,6.10
2022-09-30T15:27:59.907Z,4.90
2022-09-30T15:30:33.038Z,5.78
2022-09-30T15:35:33.283Z,5.80
2022-09-30T15:38:24.998Z,5.93
2022-09-30T15:41:05.608Z,5.70
2022-09-30T15:43:38.207Z,5.50
2022-09-30T15:46:26.920Z,6.20
2022-09-30T15:49:07.076Z,5.82
2022-09-30T15:51:40.201Z,5.72
2022-09-30T15:54:16.181Z,5.38
2022-09-30T15:56:43.580Z,5.72
2022-09-30T15:59:14.607Z,5.72
2022-09-30T16:01:48.353Z,5.60
2022-09-30T16:04:15.305Z,5.68
2022-09-30T16:06:49.676Z,5.70
2022-09-30T16:09:19.509Z,5.70
2022-09-30T16:12:06.627Z,6.07
2022-09-30T16:14:49.996Z,5.18
2022-09-30T16:17:19.837Z,5.32
2022-09-30T16:19:52.385Z,5.97
2022-09-30T16:22:41.165Z,5.15
2022-09-30T16:25:11.245Z,5.78
2022-09-30T16:27:38.836Z,5.85
2022-09-30T16:30:06.751Z,5.18
2022-09-30T16:32:40.278Z,5.35
2022-09-30T16:35:15.054Z,5.22
2022-09-30T16:37:43.961Z,4.72
2022-09-30T16:40:20.282Z,4.90
2022-09-30T16:42:47.455Z,4.88
2022-09-30T16:45:15.084Z,5.40
2022-09-30T16:47:43.192Z,4.80
2022-09-30T16:50:33.331Z,4.75
2022-09-30T16:53:00.267Z,5.07
2022-09-30T16:55:27.717Z,4.93
2022-09-30T16:57:58.816Z,4.85
2022-09-30T17:00:27.588Z,4.45
2022-09-30T17:02:54.683Z,4.60
2022-09-30T17:05:24.000Z,5.15
2022-09-30T17:08:03.776Z,4.47
2022-09-30T17:10:33.259Z,4.60
2022-09-30T17:13:00.712Z,4.60
2022-09-30T17:15:29.921Z,4.85
2022-09-30T17:17:57.987Z,4.10
2022-09-30T17:20:25.529Z,4.28
2022-09-30T17:23:06.259Z,4.32
2022-09-30T17:25:34.627Z,4.95
2022-09-30T17:28:01.895Z,4.57
2022-09-30T17:30:28.882Z,4.43
2022-09-30T17:32:56.247Z,4.30
2022-09-30T17:35:23.163Z,4.40
2022-09-30T17:37:50.139Z,4.40
2022-09-30T17:40:36.343Z,4.78
2022-09-30T17:43:10.748Z,4.72
2022-09-30T17:45:44.077Z,4.45
2022-09-30T17:48:12.184Z,4.35
2022-09-30T17:50:45.540Z,5.40
2022-09-30T17:53:14.128Z,4.38
2022-09-30T17:55:41.823Z,4.88
2022-09-30T17:58:09.490Z,4.55
2022-09-30T18:00:37.655Z,5.43
2022-09-30T18:03:05.729Z,5.25
2022-09-30T18:05:33.443Z,6.38
2022-09-30T18:08:00.395Z,5.22
2022-09-30T18:10:27.722Z,5.40
2022-09-30T18:12:55.363Z,5.65
2022-09-30T18:15:22.875Z,5.28
2022-09-30T18:17:50.020Z,5.82
2022-09-30T18:20:17.889Z,6.35
2022-09-30T18:22:46.507Z,5.90
2022-09-30T18:25:22.939Z,6.00
2022-09-30T18:27:59.265Z,6.25
2022-09-30T18:30:26.887Z,6.15
2022-09-30T18:32:54.828Z,6.22
2022-09-30T18:35:24.460Z,6.32
2022-09-30T18:37:52.216Z,6.22
2022-09-30T18:40:25.856Z,6.88
2022-09-30T18:42:58.476Z,6.03
2022-09-30T18:47:58.542Z,5.93
2022-09-30T18:50:28.321Z,6.05
2022-09-30T18:52:57.837Z,5.93
2022-09-30T18:55:25.117Z,6.10
2022-09-30T18:57:56.030Z,5.72
2022-09-30T19:00:23.161Z,6.45
2022-09-30T19:02:52.251Z,5.60
2022-09-30T19:05:19.223Z,5.85
2022-09-30T19:07:46.024Z,4.72
2022-09-30T19:10:13.177Z,5.00
2022-09-30T19:12:44.486Z,5.47
2022-09-30T19:15:16.034Z,5.05
2022-09-30T19:17:43.853Z,4.90
2022-09-30T19:20:11.315Z,4.55
2022-09-30T19:22:38.327Z,5.15
2022-09-30T19:25:06.615Z,4.45
2022-09-30T19:27:37.655Z,4.90
2022-09-30T19:30:06.464Z,4.80
2022-09-30T19:32:36.008Z,3.92
2022-09-30T19:35:06.709Z,4.88
2022-09-30T19:37:34.506Z,5.30
2022-09-30T19:40:13.773Z,4.32
2022-09-30T19:42:46.401Z,4.32
2022-09-30T19:45:15.966Z,4.05
2022-09-30T19:47:42.883Z,4.32
2022-09-30T19:50:09.946Z,4.00
2022-09-30T19:52:44.732Z,4.93
2022-09-30T19:55:17.105Z,4.38
2022-09-30T19:57:44.257Z,4.15
2022-09-30T20:00:13.035Z,4.35
2022-09-30T20:02:40.027Z,3.85
2022-09-30T20:05:07.584Z,3.92
2022-09-30T20:07:35.101Z,4.22
2022-09-30T20:10:02.336Z,3.90
2022-09-30T20:12:29.276Z,4.45
2022-09-30T20:15:14.721Z,4.28
2022-09-30T20:17:42.276Z,4.00
2022-09-30T20:20:28.106Z,4.85
2022-09-30T20:22:54.915Z,4.25
2022-09-30T20:25:21.798Z,3.80
2022-09-30T20:27:52.397Z,3.65
2022-09-30T20:30:20.446Z,4.25
2022-09-30T20:32:47.643Z,4.03
2022-09-30T20:35:14.649Z,3.75
2022-09-30T20:37:42.669Z,3.97
2022-09-30T20:40:09.889Z,3.92
2022-09-30T20:42:42.467Z,4.50
2022-09-30T20:45:11.972Z,3.38
2022-09-30T20:54:16.885Z,3.55
2022-09-30T21:02:03.468Z,3.92
2022-09-30T21:05:04.079Z,3.97
2022-09-30T21:07:35.431Z,4.13
2022-09-30T21:10:12.916Z,4.28
2022-09-30T21:12:50.918Z,4.13
2022-09-30T21:15:37.499Z,4.50
2022-09-30T21:18:14.543Z,4.43
2022-09-30T21:21:04.189Z,4.28
2022-09-30T21:23:33.776Z,3.80
2022-09-30T21:26:31.493Z,4.22
2022-09-30T21:29:02.816Z,3.95
2022-09-30T21:31:35.759Z,4.70
2022-09-30T21:34:18.142Z,4.47
2022-09-30T21:36:46.344Z,3.95
2022-09-30T21:39:16.905Z,4.15
2022-09-30T21:41:49.493Z,3.92
2022-09-30T21:44:17.740Z,4.20
2022-09-30T21:46:48.780Z,3.97
2022-09-30T21:49:23.239Z,4.00
2022-09-30T21:51:52.919Z,3.95
2022-09-30T21:54:21.394Z,4.28
2022-09-30T21:56:51.817Z,4.00
2022-09-30T21:59:18.817Z,4.20
2022-09-30T22:02:32.249Z,4.03
2022-09-30T22:05:09.910Z,4.65
2022-09-30T22:07:38.846Z,4.13
2022-09-30T22:10:06.638Z,3.85
2022-09-30T22:12:35.064Z,3.72
2022-09-30T22:15:02.233Z,4.22
2022-09-30T22:17:29.511Z,3.90
2022-09-30T22:19:58.062Z,3.70
2022-09-30T22:22:27.898Z,4.10
2022-09-30T22:24:54.790Z,3.80
2022-09-30T22:27:22.227Z,4.13
2022-09-30T22:29:49.360Z,3.50
2022-09-30T22:32:16.518Z,3.45
2022-09-30T22:35:01.870Z,3.22
2022-09-30T22:37:51.249Z,3.90
2022-09-30T22:40:18.198Z,3.60
2022-09-30T22:42:49.362Z,3.67
2022-09-30T22:45:19.592Z,3.50
2022-09-30T22:47:58.239Z,3.65
2022-09-30T22:50:27.471Z,3.47
2022-09-30T22:52:55.851Z,3.30
2022-09-30T22:55:24.175Z,3.75
2022-09-30T22:57:51.257Z,3.33
2022-09-30T23:00:18.565Z,3.30
2022-09-30T23:02:45.637Z,3.72
2022-09-30T23:05:15.576Z,3.55
2022-09-30T23:07:42.586Z,3.00
2022-09-30T23:10:12.492Z,3.35
2022-09-30T23:12:41.179Z,3.08
2022-09-30T23:15:11.205Z,3.45
2022-09-30T23:17:38.702Z,3.20
2022-09-30T23:20:06.453Z,2.88
2022-09-30T23:22:36.027Z,3.67
2022-09-30T23:25:04.322Z,3.10
2022-09-30T23:27:31.553Z,3.20
2022-09-30T23:29:59.117Z,2.80
2022-09-30T23:32:26.028Z,2.95
2022-09-30T23:34:54.567Z,2.90
2022-09-30T23:37:23.004Z,2.80
2022-09-30T23:39:49.857Z,3.00
2022-09-30T23:42:20.240Z,2.67
2022-09-30T23:44:48.263Z,2.67
2022-09-30T23:47:18.775Z,2.80
2022-09-30T23:49:46.267Z,2.30
2022-09-30T23:52:14.407Z,2.38
2022-09-30T23:54:42.758Z,2.92
2022-09-30T23:57:10.745Z,2.50
2022-09-30T23:59:38.613Z,2.38
